sensor_id;sensor_type;location;lat;lon;timestamp;P1;durP1;ratioP1;P2;durP2;ratioP2
72127;SDS011;60000;51.030;7.024;2023-02-15T00:01:23;24.98;;;11.02;;
72127;SDS011;60000;51.030;7.024;2023-02-15T00:03:49;22.80;;;9.50;;
72127;SDS011;60000;51.030;7.024;2023-02-15T00:06:14;22.97;;;9.90;;
72127;SDS011;60000;51.030;7.024;2023-02-15T00:08:40;28.13;;;12.73;;
72127;SDS011;60000;51.030;7.024;2023-02-15T00:11:10;26.57;;;11.63;;
72127;SDS011;60000;51.030;7.024;2023-02-15T00:13:40;24.10;;;10.65;;
72127;SDS011;60000;51.030;7.024;2023-02-15T00:16:07;24.40;;;10.77;;
72127;SDS011;60000;51.030;7.024;2023-02-15T00:18:37;27.45;;;11.20;;
72127;SDS011;60000;51.030;7.024;2023-02-15T00:21:06;22.40;;;9.75;;
72127;SDS011;60000;51.030;7.024;2023-02-15T00:23:33;20.40;;;8.90;;
72127;SDS011;60000;51.030;7.024;2023-02-15T00:26:10;20.75;;;8.70;;
72127;SDS011;60000;51.030;7.024;2023-02-15T00:28:36;24.40;;;10.77;;
72127;SDS011;60000;51.030;7.024;2023-02-15T00:31:02;27.33;;;10.82;;
72127;SDS011;60000;51.030;7.024;2023-02-15T00:33:35;27.20;;;11.68;;
72127;SDS011;60000;51.030;7.024;2023-02-15T00:36:01;23.33;;;10.33;;
72127;SDS011;60000;51.030;7.024;2023-02-15T00:38:27;29.15;;;12.05;;
72127;SDS011;60000;51.030;7.024;2023-02-15T00:40:54;23.17;;;9.60;;
72127;SDS011;60000;51.030;7.024;2023-02-15T00:43:20;23.08;;;9.40;;
72127;SDS011;60000;51.030;7.024;2023-02-15T00:45:45;22.37;;;9.43;;
72127;SDS011;60000;51.030;7.024;2023-02-15T00:48:11;26.88;;;11.40;;
72127;SDS011;60000;51.030;7.024;2023-02-15T00:50:36;24.73;;;11.03;;
72127;SDS011;60000;51.030;7.024;2023-02-15T00:53:02;27.03;;;11.80;;
72127;SDS011;60000;51.030;7.024;2023-02-15T00:55:27;27.87;;;10.17;;
72127;SDS011;60000;51.030;7.024;2023-02-15T00:57:52;23.03;;;9.87;;
72127;SDS011;60000;51.030;7.024;2023-02-15T01:00:18;23.40;;;10.10;;
72127;SDS011;60000;51.030;7.024;2023-02-15T01:02:43;19.80;;;7.55;;
72127;SDS011;60000;51.030;7.024;2023-02-15T01:05:08;17.30;;;7.43;;
72127;SDS011;60000;51.030;7.024;2023-02-15T01:07:34;22.63;;;8.83;;
72127;SDS011;60000;51.030;7.024;2023-02-15T01:09:59;24.17;;;9.23;;
72127;SDS011;60000;51.030;7.024;2023-02-15T01:12:24;23.80;;;9.97;;
72127;SDS011;60000;51.030;7.024;2023-02-15T01:14:50;25.90;;;11.13;;
72127;SDS011;60000;51.030;7.024;2023-02-15T01:17:15;22.23;;;9.93;;
72127;SDS011;60000;51.030;7.024;2023-02-15T01:19:40;23.23;;;10.20;;
72127;SDS011;60000;51.030;7.024;2023-02-15T01:22:05;26.87;;;10.73;;
72127;SDS011;60000;51.030;7.024;2023-02-15T01:24:31;23.03;;;10.00;;
72127;SDS011;60000;51.030;7.024;2023-02-15T01:26:56;25.40;;;10.23;;
72127;SDS011;60000;51.030;7.024;2023-02-15T01:29:22;21.90;;;9.73;;
72127;SDS011;60000;51.030;7.024;2023-02-15T01:31:47;24.13;;;10.80;;
72127;SDS011;60000;51.030;7.024;2023-02-15T01:34:12;24.90;;;9.93;;
72127;SDS011;60000;51.030;7.024;2023-02-15T01:36:37;28.03;;;10.30;;
72127;SDS011;60000;51.030;7.024;2023-02-15T01:39:03;25.13;;;10.07;;
72127;SDS011;60000;51.030;7.024;2023-02-15T01:41:28;26.03;;;10.70;;
72127;SDS011;60000;51.030;7.024;2023-02-15T01:44:01;25.08;;;9.90;;
72127;SDS011;60000;51.030;7.024;2023-02-15T01:49:03;21.58;;;8.60;;
72127;SDS011;60000;51.030;7.024;2023-02-15T01:51:33;23.40;;;9.83;;
72127;SDS011;60000;51.030;7.024;2023-02-15T01:54:03;24.95;;;9.10;;
72127;SDS011;60000;51.030;7.024;2023-02-15T01:56:35;22.88;;;9.70;;
72127;SDS011;60000;51.030;7.024;2023-02-15T01:59:03;24.42;;;9.93;;
72127;SDS011;60000;51.030;7.024;2023-02-15T02:01:32;20.90;;;8.98;;
72127;SDS011;60000;51.030;7.024;2023-02-15T02:06:29;24.23;;;9.73;;
72127;SDS011;60000;51.030;7.024;2023-02-15T02:08:57;22.92;;;9.50;;
72127;SDS011;60000;51.030;7.024;2023-02-15T02:11:22;25.48;;;11.23;;
72127;SDS011;60000;51.030;7.024;2023-02-15T02:13:48;24.30;;;10.30;;
72127;SDS011;60000;51.030;7.024;2023-02-15T02:16:23;25.85;;;10.13;;
72127;SDS011;60000;51.030;7.024;2023-02-15T02:19:04;23.00;;;10.17;;
72127;SDS011;60000;51.030;7.024;2023-02-15T02:24:53;21.88;;;9.18;;
72127;SDS011;60000;51.030;7.024;2023-02-15T02:38:32;28.80;;;11.82;;
72127;SDS011;60000;51.030;7.024;2023-02-15T02:43:53;27.48;;;10.85;;
72127;SDS011;60000;51.030;7.024;2023-02-15T02:49:02;25.15;;;10.30;;
72127;SDS011;60000;51.030;7.024;2023-02-15T02:51:27;24.97;;;9.73;;
72127;SDS011;60000;51.030;7.024;2023-02-15T02:53:54;24.63;;;10.35;;
72127;SDS011;60000;51.030;7.024;2023-02-15T02:56:36;26.77;;;10.10;;
72127;SDS011;60000;51.030;7.024;2023-02-15T03:01:42;22.25;;;9.48;;
72127;SDS011;60000;51.030;7.024;2023-02-15T03:04:12;23.77;;;10.35;;
72127;SDS011;60000;51.030;7.024;2023-02-15T03:06:50;23.77;;;10.30;;
72127;SDS011;60000;51.030;7.024;2023-02-15T03:09:28;26.33;;;9.93;;
72127;SDS011;60000;51.030;7.024;2023-02-15T03:11:59;23.55;;;10.30;;
72127;SDS011;60000;51.030;7.024;2023-02-15T03:14:26;22.15;;;9.20;;
72127;SDS011;60000;51.030;7.024;2023-02-15T03:16:52;23.52;;;9.25;;
72127;SDS011;60000;51.030;7.024;2023-02-15T03:19:21;20.90;;;8.57;;
72127;SDS011;60000;51.030;7.024;2023-02-15T03:21:54;21.23;;;8.60;;
72127;SDS011;60000;51.030;7.024;2023-02-15T03:24:24;23.50;;;9.32;;
72127;SDS011;60000;51.030;7.024;2023-02-15T03:26:53;23.83;;;8.90;;
72127;SDS011;60000;51.030;7.024;2023-02-15T03:29:21;20.35;;;8.85;;
72127;SDS011;60000;51.030;7.024;2023-02-15T03:31:51;25.98;;;9.75;;
72127;SDS011;60000;51.030;7.024;2023-02-15T03:34:22;22.50;;;8.60;;
72127;SDS011;60000;51.030;7.024;2023-02-15T03:36:57;24.73;;;10.32;;
72127;SDS011;60000;51.030;7.024;2023-02-15T03:39:30;25.10;;;10.27;;
72127;SDS011;60000;51.030;7.024;2023-02-15T03:44:42;24.52;;;10.93;;
72127;SDS011;60000;51.030;7.024;2023-02-15T03:47:18;22.58;;;9.05;;
72127;SDS011;60000;51.030;7.024;2023-02-15T03:49:50;21.83;;;8.60;;
72127;SDS011;60000;51.030;7.024;2023-02-15T03:52:20;22.20;;;8.57;;
72127;SDS011;60000;51.030;7.024;2023-02-15T03:54:46;25.77;;;9.90;;
72127;SDS011;60000;51.030;7.024;2023-02-15T03:57:14;28.95;;;12.05;;
72127;SDS011;60000;51.030;7.024;2023-02-15T04:00:14;26.13;;;11.40;;
72127;SDS011;60000;51.030;7.024;2023-02-15T04:05:40;20.27;;;8.33;;
72127;SDS011;60000;51.030;7.024;2023-02-15T04:08:07;20.73;;;8.70;;
72127;SDS011;60000;51.030;7.024;2023-02-15T04:10:33;23.75;;;9.80;;
72127;SDS011;60000;51.030;7.024;2023-02-15T04:13:17;24.50;;;9.73;;
72127;SDS011;60000;51.030;7.024;2023-02-15T04:15:43;20.23;;;8.80;;
72127;SDS011;60000;51.030;7.024;2023-02-15T04:18:28;23.40;;;9.23;;
72127;SDS011;60000;51.030;7.024;2023-02-15T04:21:23;23.73;;;10.32;;
72127;SDS011;60000;51.030;7.024;2023-02-15T04:24:09;25.20;;;10.98;;
72127;SDS011;60000;51.030;7.024;2023-02-15T04:26:53;21.60;;;10.23;;
72127;SDS011;60000;51.030;7.024;2023-02-15T04:29:19;25.57;;;10.80;;
72127;SDS011;60000;51.030;7.024;2023-02-15T04:31:46;28.92;;;12.07;;
72127;SDS011;60000;51.030;7.024;2023-02-15T04:34:11;26.83;;;11.63;;
72127;SDS011;60000;51.030;7.024;2023-02-15T04:36:37;25.73;;;10.13;;
72127;SDS011;60000;51.030;7.024;2023-02-15T04:39:03;24.80;;;10.15;;
72127;SDS011;60000;51.030;7.024;2023-02-15T04:41:29;25.87;;;10.43;;
72127;SDS011;60000;51.030;7.024;2023-02-15T04:43:54;26.23;;;10.60;;
72127;SDS011;60000;51.030;7.024;2023-02-15T04:46:20;26.83;;;11.35;;
72127;SDS011;60000;51.030;7.024;2023-02-15T04:48:45;26.83;;;10.23;;
72127;SDS011;60000;51.030;7.024;2023-02-15T04:51:11;24.63;;;9.00;;
72127;SDS011;60000;51.030;7.024;2023-02-15T04:53:36;21.43;;;8.43;;
72127;SDS011;60000;51.030;7.024;2023-02-15T04:56:02;23.57;;;9.00;;
72127;SDS011;60000;51.030;7.024;2023-02-15T04:58:27;23.08;;;8.90;;
72127;SDS011;60000;51.030;7.024;2023-02-15T05:00:56;21.87;;;8.60;;
72127;SDS011;60000;51.030;7.024;2023-02-15T05:03:21;27.35;;;9.93;;
72127;SDS011;60000;51.030;7.024;2023-02-15T05:05:47;22.90;;;9.37;;
72127;SDS011;60000;51.030;7.024;2023-02-15T05:08:12;24.87;;;10.07;;
72127;SDS011;60000;51.030;7.024;2023-02-15T05:10:37;27.67;;;11.87;;
72127;SDS011;60000;51.030;7.024;2023-02-15T05:13:03;28.33;;;11.63;;
72127;SDS011;60000;51.030;7.024;2023-02-15T05:15:28;28.60;;;10.97;;
72127;SDS011;60000;51.030;7.024;2023-02-15T05:17:53;29.20;;;10.83;;
72127;SDS011;60000;51.030;7.024;2023-02-15T05:20:19;24.60;;;9.43;;
72127;SDS011;60000;51.030;7.024;2023-02-15T05:22:44;21.05;;;8.65;;
72127;SDS011;60000;51.030;7.024;2023-02-15T05:25:09;22.87;;;9.37;;
72127;SDS011;60000;51.030;7.024;2023-02-15T05:27:53;22.85;;;8.40;;
72127;SDS011;60000;51.030;7.024;2023-02-15T05:30:37;21.73;;;8.07;;
72127;SDS011;60000;51.030;7.024;2023-02-15T05:33:04;21.25;;;8.48;;
72127;SDS011;60000;51.030;7.024;2023-02-15T05:35:30;21.75;;;8.45;;
72127;SDS011;60000;51.030;7.024;2023-02-15T05:37:56;27.33;;;10.30;;
72127;SDS011;60000;51.030;7.024;2023-02-15T05:40:21;24.27;;;9.87;;
72127;SDS011;60000;51.030;7.024;2023-02-15T05:42:46;28.80;;;11.60;;
72127;SDS011;60000;51.030;7.024;2023-02-15T05:45:12;26.67;;;11.60;;
72127;SDS011;60000;51.030;7.024;2023-02-15T05:47:37;27.00;;;10.77;;
72127;SDS011;60000;51.030;7.024;2023-02-15T05:50:02;26.60;;;11.67;;
72127;SDS011;60000;51.030;7.024;2023-02-15T05:52:28;29.73;;;10.90;;
72127;SDS011;60000;51.030;7.024;2023-02-15T05:54:53;27.33;;;11.23;;
72127;SDS011;60000;51.030;7.024;2023-02-15T05:57:19;25.10;;;10.50;;
72127;SDS011;60000;51.030;7.024;2023-02-15T05:59:44;29.13;;;12.13;;
72127;SDS011;60000;51.030;7.024;2023-02-15T06:02:09;23.65;;;10.07;;
72127;SDS011;60000;51.030;7.024;2023-02-15T06:04:35;25.80;;;9.27;;
72127;SDS011;60000;51.030;7.024;2023-02-15T06:07:00;24.27;;;9.27;;
72127;SDS011;60000;51.030;7.024;2023-02-15T06:09:25;23.43;;;9.20;;
72127;SDS011;60000;51.030;7.024;2023-02-15T06:11:50;24.87;;;9.00;;
72127;SDS011;60000;51.030;7.024;2023-02-15T06:14:16;26.83;;;10.83;;
72127;SDS011;60000;51.030;7.024;2023-02-15T06:16:41;25.60;;;10.70;;
72127;SDS011;60000;51.030;7.024;2023-02-15T06:19:06;26.17;;;11.20;;
72127;SDS011;60000;51.030;7.024;2023-02-15T06:21:32;25.97;;;11.07;;
72127;SDS011;60000;51.030;7.024;2023-02-15T06:23:57;32.43;;;11.93;;
72127;SDS011;60000;51.030;7.024;2023-02-15T06:26:22;27.53;;;10.83;;
72127;SDS011;60000;51.030;7.024;2023-02-15T06:28:48;28.33;;;11.35;;
72127;SDS011;60000;51.030;7.024;2023-02-15T06:31:13;28.47;;;10.37;;
72127;SDS011;60000;51.030;7.024;2023-02-15T06:33:38;22.80;;;9.50;;
72127;SDS011;60000;51.030;7.024;2023-02-15T06:36:04;22.27;;;9.07;;
72127;SDS011;60000;51.030;7.024;2023-02-15T06:38:29;23.57;;;9.57;;
72127;SDS011;60000;51.030;7.024;2023-02-15T06:40:55;22.92;;;9.00;;
72127;SDS011;60000;51.030;7.024;2023-02-15T06:43:20;23.40;;;9.10;;
72127;SDS011;60000;51.030;7.024;2023-02-15T06:45:46;20.90;;;8.60;;
72127;SDS011;60000;51.030;7.024;2023-02-15T06:48:11;22.40;;;9.53;;
72127;SDS011;60000;51.030;7.024;2023-02-15T06:50:36;21.47;;;8.20;;
72127;SDS011;60000;51.030;7.024;2023-02-15T06:53:02;23.20;;;9.13;;
72127;SDS011;60000;51.030;7.024;2023-02-15T06:55:27;23.40;;;9.37;;
72127;SDS011;60000;51.030;7.024;2023-02-15T06:57:53;19.20;;;7.43;;
72127;SDS011;60000;51.030;7.024;2023-02-15T07:00:18;19.67;;;8.23;;
72127;SDS011;60000;51.030;7.024;2023-02-15T07:02:44;21.83;;;8.37;;
72127;SDS011;60000;51.030;7.024;2023-02-15T07:05:09;21.43;;;8.53;;
72127;SDS011;60000;51.030;7.024;2023-02-15T07:07:35;22.83;;;9.23;;
72127;SDS011;60000;51.030;7.024;2023-02-15T07:10:00;23.10;;;9.30;;
72127;SDS011;60000;51.030;7.024;2023-02-15T07:12:25;26.97;;;10.77;;
72127;SDS011;60000;51.030;7.024;2023-02-15T07:15:06;23.60;;;9.38;;
72127;SDS011;60000;51.030;7.024;2023-02-15T07:17:34;20.48;;;9.45;;
72127;SDS011;60000;51.030;7.024;2023-02-15T07:20:00;27.10;;;10.57;;
72127;SDS011;60000;51.030;7.024;2023-02-15T07:22:26;24.48;;;10.18;;
72127;SDS011;60000;51.030;7.024;2023-02-15T07:24:52;27.67;;;10.75;;
72127;SDS011;60000;51.030;7.024;2023-02-15T07:27:19;24.23;;;10.25;;
72127;SDS011;60000;51.030;7.024;2023-02-15T07:29:45;23.53;;;9.23;;
72127;SDS011;60000;51.030;7.024;2023-02-15T07:32:11;24.93;;;10.00;;
72127;SDS011;60000;51.030;7.024;2023-02-15T07:34:36;23.55;;;9.90;;
72127;SDS011;60000;51.030;7.024;2023-02-15T07:37:01;26.98;;;10.82;;
72127;SDS011;60000;51.030;7.024;2023-02-15T07:39:27;27.10;;;9.77;;
72127;SDS011;60000;51.030;7.024;2023-02-15T07:41:52;24.20;;;10.00;;
72127;SDS011;60000;51.030;7.024;2023-02-15T07:44:17;21.17;;;9.00;;
72127;SDS011;60000;51.030;7.024;2023-02-15T07:46:43;21.17;;;9.10;;
72127;SDS011;60000;51.030;7.024;2023-02-15T07:49:08;20.97;;;8.60;;
72127;SDS011;60000;51.030;7.024;2023-02-15T07:51:33;24.47;;;8.70;;
72127;SDS011;60000;51.030;7.024;2023-02-15T07:53:59;22.97;;;8.57;;
72127;SDS011;60000;51.030;7.024;2023-02-15T07:56:24;22.65;;;9.60;;
72127;SDS011;60000;51.030;7.024;2023-02-15T07:58:49;20.40;;;8.32;;
72127;SDS011;60000;51.030;7.024;2023-02-15T08:01:27;26.60;;;9.67;;
72127;SDS011;60000;51.030;7.024;2023-02-15T08:03:56;22.80;;;9.23;;
72127;SDS011;60000;51.030;7.024;2023-02-15T08:06:22;26.65;;;10.27;;
72127;SDS011;60000;51.030;7.024;2023-02-15T08:08:49;25.50;;;9.77;;
72127;SDS011;60000;51.030;7.024;2023-02-15T08:13:59;23.00;;;9.70;;
72127;SDS011;60000;51.030;7.024;2023-02-15T08:16:36;26.00;;;10.20;;
72127;SDS011;60000;51.030;7.024;2023-02-15T08:19:08;23.40;;;9.23;;
72127;SDS011;60000;51.030;7.024;2023-02-15T08:21:34;19.83;;;8.48;;
72127;SDS011;60000;51.030;7.024;2023-02-15T08:24:00;23.10;;;10.00;;
72127;SDS011;60000;51.030;7.024;2023-02-15T08:26:27;24.27;;;11.02;;
72127;SDS011;60000;51.030;7.024;2023-02-15T08:28:53;20.52;;;8.90;;
72127;SDS011;60000;51.030;7.024;2023-02-15T08:31:18;20.67;;;9.50;;
72127;SDS011;60000;51.030;7.024;2023-02-15T08:33:45;21.37;;;8.83;;
72127;SDS011;60000;51.030;7.024;2023-02-15T08:36:12;19.42;;;8.98;;
72127;SDS011;60000;51.030;7.024;2023-02-15T08:38:42;19.35;;;8.95;;
72127;SDS011;60000;51.030;7.024;2023-02-15T08:41:11;18.15;;;8.57;;
72127;SDS011;60000;51.030;7.024;2023-02-15T08:43:39;18.73;;;8.60;;
72127;SDS011;60000;51.030;7.024;2023-02-15T08:46:05;20.70;;;8.57;;
72127;SDS011;60000;51.030;7.024;2023-02-15T08:48:31;20.40;;;8.57;;
72127;SDS011;60000;51.030;7.024;2023-02-15T08:50:57;16.90;;;7.70;;
72127;SDS011;60000;51.030;7.024;2023-02-15T08:53:22;15.50;;;7.35;;
72127;SDS011;60000;51.030;7.024;2023-02-15T08:55:57;17.20;;;7.87;;
72127;SDS011;60000;51.030;7.024;2023-02-15T08:58:22;17.65;;;7.93;;
72127;SDS011;60000;51.030;7.024;2023-02-15T09:00:48;18.63;;;8.40;;
72127;SDS011;60000;51.030;7.024;2023-02-15T09:03:13;16.83;;;7.63;;
72127;SDS011;60000;51.030;7.024;2023-02-15T09:05:38;16.40;;;7.43;;
72127;SDS011;60000;51.030;7.024;2023-02-15T09:08:04;16.57;;;7.10;;
72127;SDS011;60000;51.030;7.024;2023-02-15T09:10:29;17.10;;;7.38;;
72127;SDS011;60000;51.030;7.024;2023-02-15T09:12:54;15.23;;;7.15;;
72127;SDS011;60000;51.030;7.024;2023-02-15T09:15:20;16.37;;;6.83;;
72127;SDS011;60000;51.030;7.024;2023-02-15T09:17:45;14.77;;;6.77;;
72127;SDS011;60000;51.030;7.024;2023-02-15T09:20:10;17.23;;;7.50;;
72127;SDS011;60000;51.030;7.024;2023-02-15T09:22:36;16.57;;;7.17;;
72127;SDS011;60000;51.030;7.024;2023-02-15T09:25:01;16.47;;;7.30;;
72127;SDS011;60000;51.030;7.024;2023-02-15T09:27:27;15.10;;;7.60;;
72127;SDS011;60000;51.030;7.024;2023-02-15T09:29:52;15.10;;;7.20;;
72127;SDS011;60000;51.030;7.024;2023-02-15T09:32:17;14.73;;;6.83;;
72127;SDS011;60000;51.030;7.024;2023-02-15T09:34:43;15.47;;;6.90;;
72127;SDS011;60000;51.030;7.024;2023-02-15T09:37:08;15.87;;;7.03;;
72127;SDS011;60000;51.030;7.024;2023-02-15T09:39:34;16.73;;;7.20;;
72127;SDS011;60000;51.030;7.024;2023-02-15T09:42:10;16.65;;;7.43;;
72127;SDS011;60000;51.030;7.024;2023-02-15T09:50:27;14.32;;;6.85;;
72127;SDS011;60000;51.030;7.024;2023-02-15T09:58:43;14.07;;;6.88;;
72127;SDS011;60000;51.030;7.024;2023-02-15T10:01:31;15.60;;;7.03;;
72127;SDS011;60000;51.030;7.024;2023-02-15T10:04:19;16.33;;;7.25;;
72127;SDS011;60000;51.030;7.024;2023-02-15T10:09:55;12.57;;;6.18;;
72127;SDS011;60000;51.030;7.024;2023-02-15T10:12:42;14.10;;;6.63;;
72127;SDS011;60000;51.030;7.024;2023-02-15T10:21:28;15.13;;;6.85;;
72127;SDS011;60000;51.030;7.024;2023-02-15T10:26:48;17.77;;;7.25;;
72127;SDS011;60000;51.030;7.024;2023-02-15T10:29:24;13.67;;;6.47;;
72127;SDS011;60000;51.030;7.024;2023-02-15T10:34:51;14.65;;;6.10;;
72127;SDS011;60000;51.030;7.024;2023-02-15T10:42:53;13.77;;;7.00;;
72127;SDS011;60000;51.030;7.024;2023-02-15T10:56:06;14.02;;;6.30;;
72127;SDS011;60000;51.030;7.024;2023-02-15T11:01:34;15.18;;;6.95;;
72127;SDS011;60000;51.030;7.024;2023-02-15T11:04:31;14.98;;;6.60;;
72127;SDS011;60000;51.030;7.024;2023-02-15T11:07:26;14.68;;;6.60;;
72127;SDS011;60000;51.030;7.024;2023-02-15T11:10:06;14.38;;;6.43;;
72127;SDS011;60000;51.030;7.024;2023-02-15T11:12:52;14.75;;;6.57;;
72127;SDS011;60000;51.030;7.024;2023-02-15T11:18:00;13.15;;;6.65;;
72127;SDS011;60000;51.030;7.024;2023-02-15T11:20:39;14.27;;;6.32;;
72127;SDS011;60000;51.030;7.024;2023-02-15T11:23:14;14.13;;;6.78;;
72127;SDS011;60000;51.030;7.024;2023-02-15T11:25:41;15.05;;;6.40;;
72127;SDS011;60000;51.030;7.024;2023-02-15T11:28:11;14.63;;;7.30;;
72127;SDS011;60000;51.030;7.024;2023-02-15T11:30:48;14.32;;;6.80;;
72127;SDS011;60000;51.030;7.024;2023-02-15T11:33:20;14.40;;;6.57;;
72127;SDS011;60000;51.030;7.024;2023-02-15T11:38:26;12.60;;;6.18;;
72127;SDS011;60000;51.030;7.024;2023-02-15T11:40:55;13.70;;;7.15;;
72127;SDS011;60000;51.030;7.024;2023-02-15T11:43:29;13.23;;;5.90;;
72127;SDS011;60000;51.030;7.024;2023-02-15T11:46:00;13.60;;;6.38;;
72127;SDS011;60000;51.030;7.024;2023-02-15T11:48:26;13.43;;;5.60;;
72127;SDS011;60000;51.030;7.024;2023-02-15T11:50:55;12.65;;;5.95;;
72127;SDS011;60000;51.030;7.024;2023-02-15T11:53:21;12.32;;;6.30;;
72127;SDS011;60000;51.030;7.024;2023-02-15T11:55:52;14.43;;;6.50;;
72127;SDS011;60000;51.030;7.024;2023-02-15T12:03:44;14.15;;;6.97;;
72127;SDS011;60000;51.030;7.024;2023-02-15T12:06:17;12.52;;;6.88;;
72127;SDS011;60000;51.030;7.024;2023-02-15T12:08:46;14.05;;;6.80;;
72127;SDS011;60000;51.030;7.024;2023-02-15T12:11:19;13.65;;;7.00;;
72127;SDS011;60000;51.030;7.024;2023-02-15T12:13:58;12.38;;;5.97;;
72127;SDS011;60000;51.030;7.024;2023-02-15T12:16:24;13.27;;;6.35;;
72127;SDS011;60000;51.030;7.024;2023-02-15T12:18:52;14.05;;;6.70;;
72127;SDS011;60000;51.030;7.024;2023-02-15T12:21:30;15.05;;;7.00;;
72127;SDS011;60000;51.030;7.024;2023-02-15T12:24:03;13.32;;;6.32;;
72127;SDS011;60000;51.030;7.024;2023-02-15T12:26:36;12.13;;;5.60;;
72127;SDS011;60000;51.030;7.024;2023-02-15T12:29:07;13.43;;;6.22;;
72127;SDS011;60000;51.030;7.024;2023-02-15T12:31:44;12.02;;;6.20;;
72127;SDS011;60000;51.030;7.024;2023-02-15T12:34:13;12.48;;;6.38;;
72127;SDS011;60000;51.030;7.024;2023-02-15T12:36:47;15.00;;;6.75;;
72127;SDS011;60000;51.030;7.024;2023-02-15T12:44:23;13.85;;;6.50;;
72127;SDS011;60000;51.030;7.024;2023-02-15T12:49:41;14.45;;;6.13;;
72127;SDS011;60000;51.030;7.024;2023-02-15T12:54:45;14.70;;;6.68;;
72127;SDS011;60000;51.030;7.024;2023-02-15T12:59:49;11.85;;;6.45;;
72127;SDS011;60000;51.030;7.024;2023-02-15T13:02:29;13.60;;;6.25;;
72127;SDS011;60000;51.030;7.024;2023-02-15T13:05:05;13.50;;;6.28;;
72127;SDS011;60000;51.030;7.024;2023-02-15T13:07:38;12.98;;;6.00;;
72127;SDS011;60000;51.030;7.024;2023-02-15T13:10:36;14.88;;;6.32;;
72127;SDS011;60000;51.030;7.024;2023-02-15T13:13:11;13.57;;;6.10;;
72127;SDS011;60000;51.030;7.024;2023-02-15T13:15:43;13.20;;;6.15;;
72127;SDS011;60000;51.030;7.024;2023-02-15T13:18:13;12.15;;;5.50;;
72127;SDS011;60000;51.030;7.024;2023-02-15T13:20:41;11.50;;;6.00;;
72127;SDS011;60000;51.030;7.024;2023-02-15T13:23:16;13.32;;;6.30;;
72127;SDS011;60000;51.030;7.024;2023-02-15T13:25:58;13.77;;;6.03;;
72127;SDS011;60000;51.030;7.024;2023-02-15T13:28:31;12.80;;;6.47;;
72127;SDS011;60000;51.030;7.024;2023-02-15T13:31:04;12.18;;;5.65;;
72127;SDS011;60000;51.030;7.024;2023-02-15T13:33:38;14.13;;;6.50;;
72127;SDS011;60000;51.030;7.024;2023-02-15T13:39:01;15.15;;;7.07;;
72127;SDS011;60000;51.030;7.024;2023-02-15T13:41:50;12.25;;;5.97;;
72127;SDS011;60000;51.030;7.024;2023-02-15T13:44:50;13.85;;;6.20;;
72127;SDS011;60000;51.030;7.024;2023-02-15T13:47:21;13.40;;;6.68;;
72127;SDS011;60000;51.030;7.024;2023-02-15T13:56:00;13.25;;;6.88;;
72127;SDS011;60000;51.030;7.024;2023-02-15T13:58:48;13.93;;;6.20;;
72127;SDS011;60000;51.030;7.024;2023-02-15T14:01:42;14.10;;;6.97;;
72127;SDS011;60000;51.030;7.024;2023-02-15T14:09:43;13.43;;;6.13;;
72127;SDS011;60000;51.030;7.024;2023-02-15T14:29:52;12.90;;;6.30;;
72127;SDS011;60000;51.030;7.024;2023-02-15T14:32:32;13.98;;;6.07;;
72127;SDS011;60000;51.030;7.024;2023-02-15T14:35:05;13.35;;;5.97;;
72127;SDS011;60000;51.030;7.024;2023-02-15T14:49:25;14.90;;;6.60;;
72127;SDS011;60000;51.030;7.024;2023-02-15T14:51:56;13.55;;;6.40;;
72127;SDS011;60000;51.030;7.024;2023-02-15T14:59:43;13.35;;;6.55;;
72127;SDS011;60000;51.030;7.024;2023-02-15T15:02:45;12.88;;;6.63;;
72127;SDS011;60000;51.030;7.024;2023-02-15T15:07:57;14.82;;;7.35;;
72127;SDS011;60000;51.030;7.024;2023-02-15T15:15:57;13.73;;;6.50;;
72127;SDS011;60000;51.030;7.024;2023-02-15T15:18:50;13.80;;;6.32;;
72127;SDS011;60000;51.030;7.024;2023-02-15T15:22:02;16.63;;;7.10;;
72127;SDS011;60000;51.030;7.024;2023-02-15T15:32:45;16.05;;;7.15;;
72127;SDS011;60000;51.030;7.024;2023-02-15T15:38:17;16.88;;;8.05;;
72127;SDS011;60000;51.030;7.024;2023-02-15T15:49:39;15.18;;;7.35;;
72127;SDS011;60000;51.030;7.024;2023-02-15T15:52:15;14.82;;;6.97;;
72127;SDS011;60000;51.030;7.024;2023-02-15T15:54:44;15.63;;;7.25;;
72127;SDS011;60000;51.030;7.024;2023-02-15T15:57:15;15.17;;;6.73;;
72127;SDS011;60000;51.030;7.024;2023-02-15T16:05:47;16.35;;;7.15;;
72127;SDS011;60000;51.030;7.024;2023-02-15T16:08:25;15.43;;;6.93;;
72127;SDS011;60000;51.030;7.024;2023-02-15T16:10:55;13.70;;;6.03;;
72127;SDS011;60000;51.030;7.024;2023-02-15T16:13:22;14.55;;;7.05;;
72127;SDS011;60000;51.030;7.024;2023-02-15T16:15:47;14.80;;;7.20;;
72127;SDS011;60000;51.030;7.024;2023-02-15T16:18:17;16.63;;;7.43;;
72127;SDS011;60000;51.030;7.024;2023-02-15T16:28:54;17.17;;;8.70;;
72127;SDS011;60000;51.030;7.024;2023-02-15T16:31:19;24.03;;;11.70;;
72127;SDS011;60000;51.030;7.024;2023-02-15T16:33:47;31.08;;;16.88;;
72127;SDS011;60000;51.030;7.024;2023-02-15T16:36:20;17.00;;;9.73;;
72127;SDS011;60000;51.030;7.024;2023-02-15T16:41:17;19.77;;;9.73;;
72127;SDS011;60000;51.030;7.024;2023-02-15T16:43:48;19.23;;;9.05;;
72127;SDS011;60000;51.030;7.024;2023-02-15T16:46:23;15.82;;;8.18;;
72127;SDS011;60000;51.030;7.024;2023-02-15T16:48:52;17.57;;;9.13;;
72127;SDS011;60000;51.030;7.024;2023-02-15T16:51:22;14.98;;;7.78;;
72127;SDS011;60000;51.030;7.024;2023-02-15T16:53:50;15.18;;;8.05;;
72127;SDS011;60000;51.030;7.024;2023-02-15T16:56:22;22.95;;;11.60;;
72127;SDS011;60000;51.030;7.024;2023-02-15T16:58:52;18.67;;;9.00;;
72127;SDS011;60000;51.030;7.024;2023-02-15T17:01:20;21.73;;;11.03;;
72127;SDS011;60000;51.030;7.024;2023-02-15T17:03:49;20.42;;;11.70;;
72127;SDS011;60000;51.030;7.024;2023-02-15T17:06:19;20.90;;;10.90;;
72127;SDS011;60000;51.030;7.024;2023-02-15T17:08:47;19.45;;;9.88;;
72127;SDS011;60000;51.030;7.024;2023-02-15T17:16:31;19.25;;;9.98;;
72127;SDS011;60000;51.030;7.024;2023-02-15T17:19:17;16.83;;;8.47;;
72127;SDS011;60000;51.030;7.024;2023-02-15T17:21:48;15.88;;;8.10;;
72127;SDS011;60000;51.030;7.024;2023-02-15T17:24:24;20.05;;;7.85;;
72127;SDS011;60000;51.030;7.024;2023-02-15T17:27:41;16.33;;;6.88;;
72127;SDS011;60000;51.030;7.024;2023-02-15T17:30:00;17.02;;;8.18;;
72127;SDS011;60000;51.030;7.024;2023-02-15T17:32:29;16.87;;;8.67;;
72127;SDS011;60000;51.030;7.024;2023-02-15T17:37:30;14.50;;;6.47;;
72127;SDS011;60000;51.030;7.024;2023-02-15T17:40:20;10.63;;;4.90;;
72127;SDS011;60000;51.030;7.024;2023-02-15T17:42:50;10.18;;;4.55;;
72127;SDS011;60000;51.030;7.024;2023-02-15T17:45:17;9.27;;;3.90;;
72127;SDS011;60000;51.030;7.024;2023-02-15T17:47:43;11.52;;;4.93;;
72127;SDS011;60000;51.030;7.024;2023-02-15T17:50:23;10.43;;;5.25;;
72127;SDS011;60000;51.030;7.024;2023-02-15T17:52:52;10.63;;;4.95;;
72127;SDS011;60000;51.030;7.024;2023-02-15T17:55:20;12.48;;;5.88;;
72127;SDS011;60000;51.030;7.024;2023-02-15T18:00:41;16.17;;;6.95;;
72127;SDS011;60000;51.030;7.024;2023-02-15T18:03:46;11.32;;;5.78;;
72127;SDS011;60000;51.030;7.024;2023-02-15T18:06:33;16.50;;;7.78;;
72127;SDS011;60000;51.030;7.024;2023-02-15T18:09:19;16.10;;;8.40;;
72127;SDS011;60000;51.030;7.024;2023-02-15T18:12:17;19.20;;;9.23;;
72127;SDS011;60000;51.030;7.024;2023-02-15T18:14:43;16.63;;;8.27;;
72127;SDS011;60000;51.030;7.024;2023-02-15T18:17:10;20.73;;;10.90;;
72127;SDS011;60000;51.030;7.024;2023-02-15T18:19:38;18.17;;;9.30;;